sensor_id;sensor_type;location;lat;lon;timestamp;P1;durP1;ratioP1;P2;durP2;ratioP2
66727;SDS011;53641;44.274;19.890;2022-09-09T00:01:23;7.93;;;4.97;;
66727;SDS011;53641;44.274;19.890;2022-09-09T00:03:59;11.05;;;5.85;;
66727;SDS011;53641;44.274;19.890;2022-09-09T00:06:42;11.20;;;4.68;;
66727;SDS011;53641;44.274;19.890;2022-09-09T00:09:11;9.13;;;5.13;;
66727;SDS011;53641;44.274;19.890;2022-09-09T00:14:11;12.07;;;4.65;;
66727;SDS011;53641;44.274;19.890;2022-09-09T00:16:40;9.40;;;5.32;;
66727;SDS011;53641;44.274;19.890;2022-09-09T00:19:20;12.77;;;5.32;;
66727;SDS011;53641;44.274;19.890;2022-09-09T00:21:53;8.43;;;5.30;;
66727;SDS011;53641;44.274;19.890;2022-09-09T00:24:28;10.80;;;5.43;;
66727;SDS011;53641;44.274;19.890;2022-09-09T00:27:19;10.25;;;5.60;;
66727;SDS011;53641;44.274;19.890;2022-09-09T00:29:58;8.23;;;5.13;;
66727;SDS011;53641;44.274;19.890;2022-09-09T00:32:39;11.38;;;5.38;;
66727;SDS011;53641;44.274;19.890;2022-09-09T00:35:21;7.82;;;5.13;;
66727;SDS011;53641;44.274;19.890;2022-09-09T00:37:55;7.63;;;5.20;;
66727;SDS011;53641;44.274;19.890;2022-09-09T00:40:32;11.93;;;5.55;;
66727;SDS011;53641;44.274;19.890;2022-09-09T00:43:04;8.50;;;4.30;;
66727;SDS011;53641;44.274;19.890;2022-09-09T00:45:58;9.85;;;5.38;;
66727;SDS011;53641;44.274;19.890;2022-09-09T00:48:44;8.43;;;5.50;;
66727;SDS011;53641;44.274;19.890;2022-09-09T00:51:41;11.02;;;5.20;;
66727;SDS011;53641;44.274;19.890;2022-09-09T00:54:45;13.73;;;5.20;;
66727;SDS011;53641;44.274;19.890;2022-09-09T00:57:22;8.77;;;4.80;;
66727;SDS011;53641;44.274;19.890;2022-09-09T00:59:57;11.60;;;5.68;;
66727;SDS011;53641;44.274;19.890;2022-09-09T01:02:39;7.93;;;5.25;;
66727;SDS011;53641;44.274;19.890;2022-09-09T01:05:20;8.93;;;5.05;;
66727;SDS011;53641;44.274;19.890;2022-09-09T01:08:15;6.53;;;5.00;;
66727;SDS011;53641;44.274;19.890;2022-09-09T01:10:53;12.10;;;5.00;;
66727;SDS011;53641;44.274;19.890;2022-09-09T01:13:27;9.55;;;4.70;;
66727;SDS011;53641;44.274;19.890;2022-09-09T01:15:59;9.20;;;5.20;;
66727;SDS011;53641;44.274;19.890;2022-09-09T01:18:27;9.30;;;5.03;;
66727;SDS011;53641;44.274;19.890;2022-09-09T01:21:02;9.93;;;4.32;;
66727;SDS011;53641;44.274;19.890;2022-09-09T01:23:42;10.85;;;5.00;;
66727;SDS011;53641;44.274;19.890;2022-09-09T01:26:15;9.20;;;4.38;;
66727;SDS011;53641;44.274;19.890;2022-09-09T01:28:45;13.40;;;4.80;;
66727;SDS011;53641;44.274;19.890;2022-09-09T01:31:21;9.93;;;4.40;;
66727;SDS011;53641;44.274;19.890;2022-09-09T01:33:51;11.30;;;5.22;;
66727;SDS011;53641;44.274;19.890;2022-09-09T01:36:24;6.10;;;4.50;;
66727;SDS011;53641;44.274;19.890;2022-09-09T01:39:03;9.80;;;4.47;;
66727;SDS011;53641;44.274;19.890;2022-09-09T01:41:29;8.02;;;4.55;;
66727;SDS011;53641;44.274;19.890;2022-09-09T01:43:55;9.00;;;4.57;;
66727;SDS011;53641;44.274;19.890;2022-09-09T01:46:22;9.45;;;4.32;;
66727;SDS011;53641;44.274;19.890;2022-09-09T01:48:49;12.93;;;5.70;;
66727;SDS011;53641;44.274;19.890;2022-09-09T01:51:17;10.70;;;4.95;;
66727;SDS011;53641;44.274;19.890;2022-09-09T01:53:43;10.20;;;5.03;;
66727;SDS011;53641;44.274;19.890;2022-09-09T01:56:25;14.32;;;5.10;;
66727;SDS011;53641;44.274;19.890;2022-09-09T01:59:05;9.75;;;5.75;;
66727;SDS011;53641;44.274;19.890;2022-09-09T02:01:51;10.82;;;6.43;;
66727;SDS011;53641;44.274;19.890;2022-09-09T02:04:39;10.82;;;5.43;;
66727;SDS011;53641;44.274;19.890;2022-09-09T02:07:14;8.27;;;4.75;;
66727;SDS011;53641;44.274;19.890;2022-09-09T02:09:46;9.30;;;4.90;;
66727;SDS011;53641;44.274;19.890;2022-09-09T02:12:16;10.05;;;4.10;;
66727;SDS011;53641;44.274;19.890;2022-09-09T02:14:47;7.70;;;4.20;;
66727;SDS011;53641;44.274;19.890;2022-09-09T02:17:19;10.18;;;4.38;;
66727;SDS011;53641;44.274;19.890;2022-09-09T02:19:52;12.85;;;4.55;;
66727;SDS011;53641;44.274;19.890;2022-09-09T02:22:23;9.30;;;4.30;;
66727;SDS011;53641;44.274;19.890;2022-09-09T02:24:52;8.38;;;3.72;;
66727;SDS011;53641;44.274;19.890;2022-09-09T02:27:24;10.70;;;4.28;;
66727;SDS011;53641;44.274;19.890;2022-09-09T02:29:50;8.65;;;4.13;;
66727;SDS011;53641;44.274;19.890;2022-09-09T02:32:19;11.18;;;4.38;;
66727;SDS011;53641;44.274;19.890;2022-09-09T02:34:48;8.35;;;4.00;;
66727;SDS011;53641;44.274;19.890;2022-09-09T02:37:20;10.57;;;3.85;;
66727;SDS011;53641;44.274;19.890;2022-09-09T02:39:50;9.00;;;4.22;;
66727;SDS011;53641;44.274;19.890;2022-09-09T02:42:16;9.95;;;4.35;;
66727;SDS011;53641;44.274;19.890;2022-09-09T02:44:42;10.55;;;4.28;;
66727;SDS011;53641;44.274;19.890;2022-09-09T02:47:16;13.52;;;4.82;;
66727;SDS011;53641;44.274;19.890;2022-09-09T02:50:04;11.73;;;5.25;;
66727;SDS011;53641;44.274;19.890;2022-09-09T02:52:49;9.35;;;5.43;;
66727;SDS011;53641;44.274;19.890;2022-09-09T02:55:48;12.85;;;5.30;;
66727;SDS011;53641;44.274;19.890;2022-09-09T02:58:10;9.35;;;5.57;;
66727;SDS011;53641;44.274;19.890;2022-09-09T03:00:42;7.63;;;5.05;;
66727;SDS011;53641;44.274;19.890;2022-09-09T03:03:09;12.45;;;5.25;;
66727;SDS011;53641;44.274;19.890;2022-09-09T03:05:35;12.35;;;5.25;;
66727;SDS011;53641;44.274;19.890;2022-09-09T03:08:02;8.80;;;5.25;;
66727;SDS011;53641;44.274;19.890;2022-09-09T03:10:28;8.75;;;4.90;;
66727;SDS011;53641;44.274;19.890;2022-09-09T03:12:54;13.52;;;5.65;;
66727;SDS011;53641;44.274;19.890;2022-09-09T03:15:20;14.00;;;5.72;;
66727;SDS011;53641;44.274;19.890;2022-09-09T03:17:46;11.43;;;5.00;;
66727;SDS011;53641;44.274;19.890;2022-09-09T03:20:12;15.88;;;4.85;;
66727;SDS011;53641;44.274;19.890;2022-09-09T03:22:38;11.88;;;5.18;;
66727;SDS011;53641;44.274;19.890;2022-09-09T03:25:04;10.35;;;5.45;;
66727;SDS011;53641;44.274;19.890;2022-09-09T03:27:30;10.60;;;4.65;;
66727;SDS011;53641;44.274;19.890;2022-09-09T03:29:56;12.15;;;5.65;;
66727;SDS011;53641;44.274;19.890;2022-09-09T03:32:22;11.30;;;4.85;;
66727;SDS011;53641;44.274;19.890;2022-09-09T03:34:50;9.35;;;5.50;;
66727;SDS011;53641;44.274;19.890;2022-09-09T03:37:17;13.20;;;5.80;;
66727;SDS011;53641;44.274;19.890;2022-09-09T03:39:43;12.27;;;6.13;;
66727;SDS011;53641;44.274;19.890;2022-09-09T03:42:11;21.65;;;6.53;;
66727;SDS011;53641;44.274;19.890;2022-09-09T03:44:39;8.30;;;5.68;;
66727;SDS011;53641;44.274;19.890;2022-09-09T03:47:04;11.45;;;5.93;;
66727;SDS011;53641;44.274;19.890;2022-09-09T03:49:31;11.27;;;5.90;;
66727;SDS011;53641;44.274;19.890;2022-09-09T03:51:57;13.10;;;6.07;;
66727;SDS011;53641;44.274;19.890;2022-09-09T03:54:24;8.85;;;5.75;;
66727;SDS011;53641;44.274;19.890;2022-09-09T03:56:50;10.00;;;5.55;;
66727;SDS011;53641;44.274;19.890;2022-09-09T03:59:16;12.32;;;6.35;;
66727;SDS011;53641;44.274;19.890;2022-09-09T04:01:42;9.98;;;5.95;;
66727;SDS011;53641;44.274;19.890;2022-09-09T04:04:09;13.30;;;7.43;;
66727;SDS011;53641;44.274;19.890;2022-09-09T04:06:35;16.15;;;6.50;;
66727;SDS011;53641;44.274;19.890;2022-09-09T04:09:01;11.40;;;6.13;;
66727;SDS011;53641;44.274;19.890;2022-09-09T04:11:28;13.77;;;6.45;;
66727;SDS011;53641;44.274;19.890;2022-09-09T04:13:54;10.80;;;6.20;;
66727;SDS011;53641;44.274;19.890;2022-09-09T04:16:20;12.32;;;6.93;;
66727;SDS011;53641;44.274;19.890;2022-09-09T04:18:46;13.60;;;7.07;;
66727;SDS011;53641;44.274;19.890;2022-09-09T04:21:12;12.18;;;6.40;;
66727;SDS011;53641;44.274;19.890;2022-09-09T04:23:38;12.82;;;7.10;;
66727;SDS011;53641;44.274;19.890;2022-09-09T04:26:04;11.50;;;7.00;;
66727;SDS011;53641;44.274;19.890;2022-09-09T04:28:31;13.30;;;6.53;;
66727;SDS011;53641;44.274;19.890;2022-09-09T04:31:06;12.18;;;6.30;;
66727;SDS011;53641;44.274;19.890;2022-09-09T04:33:32;16.85;;;7.13;;
66727;SDS011;53641;44.274;19.890;2022-09-09T04:35:58;13.43;;;7.30;;
66727;SDS011;53641;44.274;19.890;2022-09-09T04:38:24;11.23;;;6.85;;
66727;SDS011;53641;44.274;19.890;2022-09-09T04:40:51;13.65;;;6.93;;
66727;SDS011;53641;44.274;19.890;2022-09-09T04:43:18;15.80;;;7.90;;
66727;SDS011;53641;44.274;19.890;2022-09-09T04:45:49;10.38;;;6.57;;
66727;SDS011;53641;44.274;19.890;2022-09-09T04:48:16;17.38;;;6.93;;
66727;SDS011;53641;44.274;19.890;2022-09-09T04:50:42;14.55;;;8.02;;
66727;SDS011;53641;44.274;19.890;2022-09-09T04:53:08;13.27;;;7.68;;
66727;SDS011;53641;44.274;19.890;2022-09-09T04:55:34;10.48;;;7.00;;
66727;SDS011;53641;44.274;19.890;2022-09-09T04:58:04;13.77;;;6.97;;
66727;SDS011;53641;44.274;19.890;2022-09-09T05:00:30;9.18;;;6.57;;
66727;SDS011;53641;44.274;19.890;2022-09-09T05:02:56;18.85;;;8.25;;
66727;SDS011;53641;44.274;19.890;2022-09-09T05:05:22;13.02;;;7.75;;
66727;SDS011;53641;44.274;19.890;2022-09-09T05:07:48;11.55;;;7.78;;
66727;SDS011;53641;44.274;19.890;2022-09-09T05:10:14;14.85;;;8.05;;
66727;SDS011;53641;44.274;19.890;2022-09-09T05:12:41;17.33;;;8.25;;
66727;SDS011;53641;44.274;19.890;2022-09-09T05:15:07;13.90;;;8.60;;
66727;SDS011;53641;44.274;19.890;2022-09-09T05:17:34;18.80;;;9.10;;
66727;SDS011;53641;44.274;19.890;2022-09-09T05:20:00;12.50;;;8.75;;
66727;SDS011;53641;44.274;19.890;2022-09-09T05:22:28;14.63;;;8.48;;
66727;SDS011;53641;44.274;19.890;2022-09-09T05:24:55;16.27;;;8.40;;
66727;SDS011;53641;44.274;19.890;2022-09-09T05:27:20;21.50;;;8.50;;
66727;SDS011;53641;44.274;19.890;2022-09-09T05:29:46;12.50;;;8.80;;
66727;SDS011;53641;44.274;19.890;2022-09-09T05:32:13;12.20;;;8.30;;
66727;SDS011;53641;44.274;19.890;2022-09-09T05:34:40;15.57;;;7.90;;
66727;SDS011;53641;44.274;19.890;2022-09-09T05:37:06;10.70;;;7.35;;
66727;SDS011;53641;44.274;19.890;2022-09-09T05:39:32;15.95;;;9.52;;
66727;SDS011;53641;44.274;19.890;2022-09-09T05:41:59;15.70;;;8.55;;
66727;SDS011;53641;44.274;19.890;2022-09-09T05:44:24;14.60;;;8.02;;
66727;SDS011;53641;44.274;19.890;2022-09-09T05:46:52;16.63;;;7.80;;
66727;SDS011;53641;44.274;19.890;2022-09-09T05:49:19;16.95;;;8.23;;
66727;SDS011;53641;44.274;19.890;2022-09-09T05:51:45;12.98;;;6.90;;
66727;SDS011;53641;44.274;19.890;2022-09-09T05:54:14;18.35;;;7.50;;
66727;SDS011;53641;44.274;19.890;2022-09-09T05:56:40;10.30;;;7.82;;
66727;SDS011;53641;44.274;19.890;2022-09-09T05:59:07;11.15;;;7.47;;
66727;SDS011;53641;44.274;19.890;2022-09-09T06:01:33;15.57;;;7.88;;
66727;SDS011;53641;44.274;19.890;2022-09-09T06:04:01;14.85;;;7.13;;
66727;SDS011;53641;44.274;19.890;2022-09-09T06:06:30;17.13;;;8.00;;
66727;SDS011;53641;44.274;19.890;2022-09-09T06:09:05;19.13;;;8.73;;
66727;SDS011;53641;44.274;19.890;2022-09-09T06:11:35;15.88;;;9.60;;
66727;SDS011;53641;44.274;19.890;2022-09-09T06:14:02;15.32;;;8.75;;
66727;SDS011;53641;44.274;19.890;2022-09-09T06:16:29;13.93;;;8.00;;
66727;SDS011;53641;44.274;19.890;2022-09-09T06:18:57;14.57;;;8.52;;
66727;SDS011;53641;44.274;19.890;2022-09-09T06:21:35;14.95;;;8.38;;
66727;SDS011;53641;44.274;19.890;2022-09-09T06:24:02;12.57;;;8.32;;
66727;SDS011;53641;44.274;19.890;2022-09-09T06:26:32;11.63;;;7.32;;
66727;SDS011;53641;44.274;19.890;2022-09-09T06:31:26;9.93;;;6.38;;
66727;SDS011;53641;44.274;19.890;2022-09-09T06:33:55;14.25;;;6.82;;
66727;SDS011;53641;44.274;19.890;2022-09-09T06:36:23;11.88;;;6.25;;
66727;SDS011;53641;44.274;19.890;2022-09-09T06:38:50;11.45;;;6.68;;
66727;SDS011;53641;44.274;19.890;2022-09-09T06:41:17;11.00;;;5.88;;
66727;SDS011;53641;44.274;19.890;2022-09-09T06:43:44;8.95;;;5.40;;
66727;SDS011;53641;44.274;19.890;2022-09-09T06:46:16;13.13;;;5.78;;
66727;SDS011;53641;44.274;19.890;2022-09-09T06:48:43;12.88;;;5.45;;
66727;SDS011;53641;44.274;19.890;2022-09-09T06:51:11;9.40;;;5.53;;
66727;SDS011;53641;44.274;19.890;2022-09-09T06:53:40;9.07;;;4.30;;
66727;SDS011;53641;44.274;19.890;2022-09-09T06:56:24;10.38;;;4.35;;
66727;SDS011;53641;44.274;19.890;2022-09-09T06:58:53;13.88;;;4.10;;
66727;SDS011;53641;44.274;19.890;2022-09-09T07:01:21;9.55;;;4.32;;
66727;SDS011;53641;44.274;19.890;2022-09-09T07:03:49;6.75;;;4.15;;
66727;SDS011;53641;44.274;19.890;2022-09-09T07:06:23;12.57;;;4.15;;
66727;SDS011;53641;44.274;19.890;2022-09-09T07:08:51;9.57;;;4.15;;
66727;SDS011;53641;44.274;19.890;2022-09-09T07:11:17;8.73;;;3.97;;
66727;SDS011;53641;44.274;19.890;2022-09-09T07:13:43;11.85;;;4.47;;
66727;SDS011;53641;44.274;19.890;2022-09-09T07:16:10;10.77;;;4.70;;
66727;SDS011;53641;44.274;19.890;2022-09-09T07:18:38;14.75;;;5.50;;
66727;SDS011;53641;44.274;19.890;2022-09-09T07:21:05;10.98;;;4.50;;
66727;SDS011;53641;44.274;19.890;2022-09-09T07:23:31;9.95;;;4.70;;
66727;SDS011;53641;44.274;19.890;2022-09-09T07:25:57;8.05;;;4.00;;
66727;SDS011;53641;44.274;19.890;2022-09-09T07:28:24;7.18;;;3.70;;
66727;SDS011;53641;44.274;19.890;2022-09-09T07:30:56;13.45;;;4.43;;
66727;SDS011;53641;44.274;19.890;2022-09-09T07:33:23;11.75;;;4.13;;
66727;SDS011;53641;44.274;19.890;2022-09-09T07:35:51;7.03;;;3.50;;
66727;SDS011;53641;44.274;19.890;2022-09-09T07:38:18;8.18;;;3.20;;
66727;SDS011;53641;44.274;19.890;2022-09-09T07:40:44;7.70;;;3.42;;
66727;SDS011;53641;44.274;19.890;2022-09-09T07:43:10;7.75;;;3.00;;
66727;SDS011;53641;44.274;19.890;2022-09-09T07:45:36;8.15;;;2.70;;
66727;SDS011;53641;44.274;19.890;2022-09-09T07:48:03;6.95;;;2.67;;
66727;SDS011;53641;44.274;19.890;2022-09-09T07:50:29;5.40;;;2.55;;
66727;SDS011;53641;44.274;19.890;2022-09-09T07:52:55;7.13;;;3.03;;
66727;SDS011;53641;44.274;19.890;2022-09-09T07:55:21;8.15;;;3.05;;
66727;SDS011;53641;44.274;19.890;2022-09-09T07:57:50;9.15;;;3.15;;
66727;SDS011;53641;44.274;19.890;2022-09-09T08:00:16;6.82;;;3.20;;
66727;SDS011;53641;44.274;19.890;2022-09-09T08:02:43;8.45;;;3.35;;
66727;SDS011;53641;44.274;19.890;2022-09-09T08:05:20;4.78;;;3.20;;
66727;SDS011;53641;44.274;19.890;2022-09-09T08:07:47;7.15;;;2.60;;
66727;SDS011;53641;44.274;19.890;2022-09-09T08:10:13;8.00;;;3.08;;
66727;SDS011;53641;44.274;19.890;2022-09-09T08:12:41;9.88;;;2.53;;
66727;SDS011;53641;44.274;19.890;2022-09-09T08:15:06;6.43;;;2.70;;
66727;SDS011;53641;44.274;19.890;2022-09-09T08:17:33;9.95;;;3.13;;
66727;SDS011;53641;44.274;19.890;2022-09-09T08:19:58;11.50;;;3.67;;
66727;SDS011;53641;44.274;19.890;2022-09-09T08:22:29;6.30;;;3.03;;
66727;SDS011;53641;44.274;19.890;2022-09-09T08:24:55;5.82;;;3.20;;
66727;SDS011;53641;44.274;19.890;2022-09-09T08:27:21;5.90;;;2.58;;
66727;SDS011;53641;44.274;19.890;2022-09-09T08:29:47;5.10;;;2.42;;
66727;SDS011;53641;44.274;19.890;2022-09-09T08:32:13;9.48;;;2.75;;
66727;SDS011;53641;44.274;19.890;2022-09-09T08:34:39;12.15;;;3.10;;
66727;SDS011;53641;44.274;19.890;2022-09-09T08:37:06;8.25;;;2.70;;
66727;SDS011;53641;44.274;19.890;2022-09-09T08:39:31;7.68;;;2.88;;
66727;SDS011;53641;44.274;19.890;2022-09-09T08:42:13;10.40;;;3.00;;
66727;SDS011;53641;44.274;19.890;2022-09-09T08:44:55;5.93;;;1.98;;
66727;SDS011;53641;44.274;19.890;2022-09-09T08:47:31;6.47;;;2.60;;
66727;SDS011;53641;44.274;19.890;2022-09-09T08:50:25;3.90;;;1.90;;
66727;SDS011;53641;44.274;19.890;2022-09-09T08:52:55;10.02;;;2.03;;
66727;SDS011;53641;44.274;19.890;2022-09-09T08:55:30;5.85;;;2.30;;
66727;SDS011;53641;44.274;19.890;2022-09-09T08:58:09;4.25;;;2.13;;
66727;SDS011;53641;44.274;19.890;2022-09-09T09:01:41;6.05;;;2.63;;
66727;SDS011;53641;44.274;19.890;2022-09-09T09:04:12;8.50;;;2.25;;
66727;SDS011;53641;44.274;19.890;2022-09-09T09:07:43;11.23;;;2.33;;
66727;SDS011;53641;44.274;19.890;2022-09-09T09:09:57;6.78;;;2.55;;
66727;SDS011;53641;44.274;19.890;2022-09-09T09:12:28;3.83;;;2.15;;
66727;SDS011;53641;44.274;19.890;2022-09-09T09:14:58;4.18;;;2.00;;
66727;SDS011;53641;44.274;19.890;2022-09-09T09:17:26;5.22;;;2.20;;
66727;SDS011;53641;44.274;19.890;2022-09-09T09:19:56;8.02;;;2.58;;
66727;SDS011;53641;44.274;19.890;2022-09-09T09:22:40;9.38;;;2.45;;
66727;SDS011;53641;44.274;19.890;2022-09-09T09:25:12;5.28;;;1.50;;
66727;SDS011;53641;44.274;19.890;2022-09-09T09:27:56;14.32;;;2.42;;
66727;SDS011;53641;44.274;19.890;2022-09-09T09:30:34;8.35;;;2.53;;
66727;SDS011;53641;44.274;19.890;2022-09-09T09:33:02;7.90;;;2.22;;
66727;SDS011;53641;44.274;19.890;2022-09-09T09:35:36;4.68;;;1.90;;
66727;SDS011;53641;44.274;19.890;2022-09-09T09:38:10;5.35;;;1.65;;
66727;SDS011;53641;44.274;19.890;2022-09-09T09:40:48;9.43;;;2.55;;
66727;SDS011;53641;44.274;19.890;2022-09-09T09:43:18;7.00;;;2.15;;
66727;SDS011;53641;44.274;19.890;2022-09-09T09:45:46;8.00;;;2.20;;
66727;SDS011;53641;44.274;19.890;2022-09-09T09:48:13;7.53;;;2.10;;
66727;SDS011;53641;44.274;19.890;2022-09-09T09:50:46;6.53;;;1.70;;
66727;SDS011;53641;44.274;19.890;2022-09-09T09:53:24;10.05;;;2.45;;
66727;SDS011;53641;44.274;19.890;2022-09-09T09:55:58;7.78;;;1.88;;
66727;SDS011;53641;44.274;19.890;2022-09-09T09:58:26;6.10;;;2.00;;
66727;SDS011;53641;44.274;19.890;2022-09-09T10:00:57;8.20;;;2.13;;
66727;SDS011;53641;44.274;19.890;2022-09-09T10:03:28;5.43;;;2.10;;
66727;SDS011;53641;44.274;19.890;2022-09-09T10:05:55;9.23;;;2.25;;
66727;SDS011;53641;44.274;19.890;2022-09-09T10:08:25;7.60;;;2.58;;
66727;SDS011;53641;44.274;19.890;2022-09-09T10:10:56;7.97;;;2.85;;
66727;SDS011;53641;44.274;19.890;2022-09-09T10:13:39;6.97;;;1.98;;
66727;SDS011;53641;44.274;19.890;2022-09-09T10:16:22;5.63;;;2.55;;
66727;SDS011;53641;44.274;19.890;2022-09-09T10:18:58;12.70;;;3.40;;
66727;SDS011;53641;44.274;19.890;2022-09-09T10:21:29;9.63;;;3.10;;
66727;SDS011;53641;44.274;19.890;2022-09-09T10:24:11;8.68;;;2.33;;
66727;SDS011;53641;44.274;19.890;2022-09-09T10:27:24;14.02;;;3.00;;
66727;SDS011;53641;44.274;19.890;2022-09-09T10:30:07;21.65;;;3.85;;
66727;SDS011;53641;44.274;19.890;2022-09-09T10:32:57;9.23;;;2.72;;
66727;SDS011;53641;44.274;19.890;2022-09-09T10:35:54;13.00;;;4.65;;
66727;SDS011;53641;44.274;19.890;2022-09-09T10:38:41;7.20;;;2.70;;
66727;SDS011;53641;44.274;19.890;2022-09-09T10:44:22;6.75;;;2.58;;
66727;SDS011;53641;44.274;19.890;2022-09-09T10:47:10;4.75;;;2.72;;
66727;SDS011;53641;44.274;19.890;2022-09-09T10:49:47;8.13;;;2.55;;
66727;SDS011;53641;44.274;19.890;2022-09-09T10:52:42;6.80;;;3.63;;
66727;SDS011;53641;44.274;19.890;2022-09-09T10:55:18;10.15;;;2.83;;
66727;SDS011;53641;44.274;19.890;2022-09-09T10:57:46;12.23;;;3.28;;
66727;SDS011;53641;44.274;19.890;2022-09-09T11:00:15;5.05;;;2.83;;
66727;SDS011;53641;44.274;19.890;2022-09-09T11:02:44;6.40;;;2.83;;
66727;SDS011;53641;44.274;19.890;2022-09-09T11:05:20;9.95;;;3.38;;
66727;SDS011;53641;44.274;19.890;2022-09-09T11:07:59;6.07;;;2.60;;
66727;SDS011;53641;44.274;19.890;2022-09-09T11:10:44;6.88;;;2.60;;
66727;SDS011;53641;44.274;19.890;2022-09-09T11:13:15;4.72;;;2.38;;
66727;SDS011;53641;44.274;19.890;2022-09-09T11:15:46;5.97;;;3.30;;
66727;SDS011;53641;44.274;19.890;2022-09-09T11:18:19;7.53;;;2.30;;
66727;SDS011;53641;44.274;19.890;2022-09-09T11:20:51;10.68;;;2.65;;
66727;SDS011;53641;44.274;19.890;2022-09-09T11:23:24;4.82;;;2.13;;
66727;SDS011;53641;44.274;19.890;2022-09-09T11:25:59;5.45;;;2.33;;
66727;SDS011;53641;44.274;19.890;2022-09-09T11:29:08;8.68;;;2.70;;
66727;SDS011;53641;44.274;19.890;2022-09-09T11:31:43;6.40;;;2.30;;
66727;SDS011;53641;44.274;19.890;2022-09-09T11:34:54;6.30;;;2.58;;
66727;SDS011;53641;44.274;19.890;2022-09-09T11:37:49;8.45;;;2.25;;
66727;SDS011;53641;44.274;19.890;2022-09-09T11:40:22;8.52;;;2.90;;
66727;SDS011;53641;44.274;19.890;2022-09-09T11:42:59;6.97;;;2.80;;
66727;SDS011;53641;44.274;19.890;2022-09-09T11:45:41;7.47;;;3.80;;
66727;SDS011;53641;44.274;19.890;2022-09-09T11:48:44;5.45;;;2.53;;
66727;SDS011;53641;44.274;19.890;2022-09-09T11:51:13;6.15;;;2.78;;
66727;SDS011;53641;44.274;19.890;2022-09-09T11:53:52;8.02;;;2.28;;
66727;SDS011;53641;44.274;19.890;2022-09-09T11:56:43;7.72;;;2.83;;
66727;SDS011;53641;44.274;19.890;2022-09-09T11:59:32;7.88;;;2.45;;
66727;SDS011;53641;44.274;19.890;2022-09-09T12:01:57;3.92;;;2.45;;
66727;SDS011;53641;44.274;19.890;2022-09-09T12:04:28;6.80;;;2.50;;
66727;SDS011;53641;44.274;19.890;2022-09-09T12:09:56;8.27;;;2.30;;
66727;SDS011;53641;44.274;19.890;2022-09-09T12:12:27;7.20;;;2.97;;
66727;SDS011;53641;44.274;19.890;2022-09-09T12:14:59;5.75;;;2.22;;
66727;SDS011;53641;44.274;19.890;2022-09-09T12:17:27;11.93;;;2.55;;
66727;SDS011;53641;44.274;19.890;2022-09-09T12:20:15;5.82;;;2.15;;
66727;SDS011;53641;44.274;19.890;2022-09-09T12:22:58;5.93;;;2.28;;
66727;SDS011;53641;44.274;19.890;2022-09-09T12:25:55;7.43;;;2.13;;
66727;SDS011;53641;44.274;19.890;2022-09-09T12:28:33;11.65;;;2.28;;
66727;SDS011;53641;44.274;19.890;2022-09-09T12:31:10;3.50;;;1.88;;
66727;SDS011;53641;44.274;19.890;2022-09-09T12:34:06;4.65;;;1.63;;
66727;SDS011;53641;44.274;19.890;2022-09-09T12:36:36;4.20;;;2.33;;
66727;SDS011;53641;44.274;19.890;2022-09-09T12:39:10;2.58;;;1.70;;
66727;SDS011;53641;44.274;19.890;2022-09-09T12:41:54;10.20;;;2.03;;
66727;SDS011;53641;44.274;19.890;2022-09-09T12:44:21;6.43;;;2.38;;
66727;SDS011;53641;44.274;19.890;2022-09-09T12:46:47;5.90;;;2.63;;
66727;SDS011;53641;44.274;19.890;2022-09-09T12:49:24;4.55;;;2.03;;
66727;SDS011;53641;44.274;19.890;2022-09-09T12:51:56;11.02;;;2.38;;
66727;SDS011;53641;44.274;19.890;2022-09-09T12:54:22;6.07;;;1.90;;
66727;SDS011;53641;44.274;19.890;2022-09-09T12:56:48;5.03;;;1.92;;
66727;SDS011;53641;44.274;19.890;2022-09-09T12:59:25;5.65;;;2.00;;
66727;SDS011;53641;44.274;19.890;2022-09-09T13:01:55;7.35;;;2.10;;
66727;SDS011;53641;44.274;19.890;2022-09-09T13:06:48;5.35;;;2.13;;
66727;SDS011;53641;44.274;19.890;2022-09-09T13:09:14;5.07;;;2.08;;
66727;SDS011;53641;44.274;19.890;2022-09-09T13:11:41;5.07;;;2.10;;
66727;SDS011;53641;44.274;19.890;2022-09-09T13:14:16;5.85;;;2.30;;
66727;SDS011;53641;44.274;19.890;2022-09-09T13:16:54;3.60;;;1.70;;
66727;SDS011;53641;44.274;19.890;2022-09-09T13:19:21;5.15;;;2.22;;
66727;SDS011;53641;44.274;19.890;2022-09-09T13:21:47;5.05;;;2.55;;
66727;SDS011;53641;44.274;19.890;2022-09-09T13:24:35;6.97;;;1.92;;
66727;SDS011;53641;44.274;19.890;2022-09-09T13:27:01;5.43;;;2.10;;
66727;SDS011;53641;44.274;19.890;2022-09-09T13:29:28;3.88;;;1.70;;
66727;SDS011;53641;44.274;19.890;2022-09-09T13:32:05;4.28;;;1.70;;
66727;SDS011;53641;44.274;19.890;2022-09-09T13:34:33;5.38;;;2.28;;
66727;SDS011;53641;44.274;19.890;2022-09-09T13:37:01;6.30;;;2.17;;
66727;SDS011;53641;44.274;19.890;2022-09-09T13:39:30;5.97;;;2.30;;
66727;SDS011;53641;44.274;19.890;2022-09-09T13:41:58;5.57;;;1.70;;
66727;SDS011;53641;44.274;19.890;2022-09-09T13:44:28;7.07;;;1.73;;
66727;SDS011;53641;44.274;19.890;2022-09-09T13:47:00;4.00;;;1.70;;
66727;SDS011;53641;44.274;19.890;2022-09-09T13:49:28;4.35;;;2.15;;
66727;SDS011;53641;44.274;19.890;2022-09-09T13:52:08;4.63;;;1.58;;
66727;SDS011;53641;44.274;19.890;2022-09-09T13:54:54;3.53;;;1.80;;
66727;SDS011;53641;44.274;19.890;2022-09-09T13:57:24;5.28;;;2.13;;
66727;SDS011;53641;44.274;19.890;2022-09-09T13:59:51;3.42;;;1.73;;
66727;SDS011;53641;44.274;19.890;2022-09-09T14:02:18;4.82;;;1.73;;
66727;SDS011;53641;44.274;19.890;2022-09-09T14:04:44;5.85;;;2.33;;
66727;SDS011;53641;44.274;19.890;2022-09-09T14:07:14;3.65;;;2.10;;
66727;SDS011;53641;44.274;19.890;2022-09-09T14:09:41;4.65;;;1.70;;
66727;SDS011;53641;44.274;19.890;2022-09-09T14:12:11;5.07;;;1.50;;
66727;SDS011;53641;44.274;19.890;2022-09-09T14:14:37;5.18;;;1.55;;
66727;SDS011;53641;44.274;19.890;2022-09-09T14:17:03;3.03;;;1.65;;
66727;SDS011;53641;44.274;19.890;2022-09-09T14:19:29;3.60;;;1.77;;
66727;SDS011;53641;44.274;19.890;2022-09-09T14:21:55;8.13;;;2.00;;
66727;SDS011;53641;44.274;19.890;2022-09-09T14:24:25;8.52;;;1.60;;
66727;SDS011;53641;44.274;19.890;2022-09-09T14:26:51;5.53;;;1.60;;
66727;SDS011;53641;44.274;19.890;2022-09-09T14:29:17;6.60;;;1.85;;
66727;SDS011;53641;44.274;19.890;2022-09-09T14:31:42;7.80;;;2.10;;
66727;SDS011;53641;44.274;19.890;2022-09-09T14:34:08;5.28;;;2.35;;
66727;SDS011;53641;44.274;19.890;2022-09-09T14:36:35;4.45;;;1.88;;
66727;SDS011;53641;44.274;19.890;2022-09-09T14:39:01;3.25;;;1.65;;
66727;SDS011;53641;44.274;19.890;2022-09-09T14:41:27;3.95;;;2.05;;
66727;SDS011;53641;44.274;19.890;2022-09-09T14:43:54;4.35;;;1.70;;
66727;SDS011;53641;44.274;19.890;2022-09-09T14:46:20;5.80;;;2.20;;
66727;SDS011;53641;44.274;19.890;2022-09-09T14:48:46;2.75;;;1.50;;
66727;SDS011;53641;44.274;19.890;2022-09-09T14:51:16;6.07;;;1.75;;
66727;SDS011;53641;44.274;19.890;2022-09-09T14:53:44;3.60;;;1.92;;
66727;SDS011;53641;44.274;19.890;2022-09-09T14:56:12;4.30;;;1.77;;
66727;SDS011;53641;44.274;19.890;2022-09-09T14:58:47;4.60;;;1.65;;
66727;SDS011;53641;44.274;19.890;2022-09-09T15:01:14;2.88;;;1.65;;
66727;SDS011;53641;44.274;19.890;2022-09-09T15:03:41;6.95;;;1.85;;
66727;SDS011;53641;44.274;19.890;2022-09-09T15:06:09;5.05;;;1.75;;
66727;SDS011;53641;44.274;19.890;2022-09-09T15:08:37;5.03;;;1.83;;
66727;SDS011;53641;44.274;19.890;2022-09-09T15:11:05;4.55;;;1.63;;